sensor_id;sensor_type;location;lat;lon;timestamp;P1;durP1;ratioP1;P2;durP2;ratioP2
63555;SDS011;49700;48.072;7.800;2022-08-21T00:00:37;3.83;;;1.87;;
63555;SDS011;49700;48.072;7.800;2022-08-21T00:03:04;2.17;;;1.60;;
63555;SDS011;49700;48.072;7.800;2022-08-21T00:05:32;2.00;;;1.80;;
63555;SDS011;49700;48.072;7.800;2022-08-21T00:08:01;3.03;;;1.70;;
63555;SDS011;49700;48.072;7.800;2022-08-21T00:10:27;1.73;;;1.50;;
63555;SDS011;49700;48.072;7.800;2022-08-21T00:12:52;2.03;;;1.40;;
63555;SDS011;49700;48.072;7.800;2022-08-21T00:15:19;3.17;;;1.87;;
63555;SDS011;49700;48.072;7.800;2022-08-21T00:17:48;2.47;;;2.30;;
63555;SDS011;49700;48.072;7.800;2022-08-21T00:20:14;3.70;;;1.90;;
63555;SDS011;49700;48.072;7.800;2022-08-21T00:22:41;3.67;;;1.60;;
63555;SDS011;49700;48.072;7.800;2022-08-21T00:25:07;6.03;;;2.33;;
63555;SDS011;49700;48.072;7.800;2022-08-21T00:27:33;3.53;;;2.20;;
63555;SDS011;49700;48.072;7.800;2022-08-21T00:29:58;3.40;;;1.90;;
63555;SDS011;49700;48.072;7.800;2022-08-21T00:32:25;3.03;;;1.83;;
63555;SDS011;49700;48.072;7.800;2022-08-21T00:34:52;7.27;;;2.10;;
63555;SDS011;49700;48.072;7.800;2022-08-21T00:37:18;2.77;;;1.77;;
63555;SDS011;49700;48.072;7.800;2022-08-21T00:39:44;2.07;;;1.80;;
63555;SDS011;49700;48.072;7.800;2022-08-21T00:42:10;2.87;;;1.90;;
63555;SDS011;49700;48.072;7.800;2022-08-21T00:44:41;5.13;;;2.33;;
63555;SDS011;49700;48.072;7.800;2022-08-21T00:47:07;2.77;;;2.20;;
63555;SDS011;49700;48.072;7.800;2022-08-21T00:49:33;2.40;;;1.80;;
63555;SDS011;49700;48.072;7.800;2022-08-21T00:54:50;2.60;;;1.80;;
63555;SDS011;49700;48.072;7.800;2022-08-21T00:57:19;1.87;;;1.73;;
63555;SDS011;49700;48.072;7.800;2022-08-21T00:59:55;2.60;;;1.77;;
63555;SDS011;49700;48.072;7.800;2022-08-21T01:02:23;4.17;;;1.90;;
63555;SDS011;49700;48.072;7.800;2022-08-21T01:04:51;4.20;;;1.80;;
63555;SDS011;49700;48.072;7.800;2022-08-21T01:07:17;2.37;;;1.70;;
63555;SDS011;49700;48.072;7.800;2022-08-21T01:09:43;2.63;;;2.43;;
63555;SDS011;49700;48.072;7.800;2022-08-21T01:12:11;3.17;;;2.30;;
63555;SDS011;49700;48.072;7.800;2022-08-21T01:14:37;5.00;;;1.80;;
63555;SDS011;49700;48.072;7.800;2022-08-21T01:17:14;2.70;;;2.00;;
63555;SDS011;49700;48.072;7.800;2022-08-21T01:19:41;2.80;;;1.70;;
63555;SDS011;49700;48.072;7.800;2022-08-21T01:22:31;1.93;;;1.80;;
63555;SDS011;49700;48.072;7.800;2022-08-21T01:24:58;1.90;;;1.73;;
63555;SDS011;49700;48.072;7.800;2022-08-21T01:27:27;1.93;;;1.83;;
63555;SDS011;49700;48.072;7.800;2022-08-21T01:30:07;1.90;;;1.70;;
63555;SDS011;49700;48.072;7.800;2022-08-21T01:32:47;4.60;;;2.10;;
63555;SDS011;49700;48.072;7.800;2022-08-21T01:35:14;1.90;;;1.50;;
63555;SDS011;49700;48.072;7.800;2022-08-21T01:37:54;3.40;;;1.77;;
63555;SDS011;49700;48.072;7.800;2022-08-21T01:40:19;2.67;;;1.60;;
63555;SDS011;49700;48.072;7.800;2022-08-21T01:42:47;1.80;;;1.70;;
63555;SDS011;49700;48.072;7.800;2022-08-21T01:45:14;3.10;;;2.13;;
63555;SDS011;49700;48.072;7.800;2022-08-21T01:47:43;2.00;;;1.80;;
63555;SDS011;49700;48.072;7.800;2022-08-21T01:50:11;2.20;;;1.63;;
63555;SDS011;49700;48.072;7.800;2022-08-21T01:52:40;2.43;;;2.20;;
63555;SDS011;49700;48.072;7.800;2022-08-21T01:55:07;3.50;;;1.93;;
63555;SDS011;49700;48.072;7.800;2022-08-21T01:57:34;4.27;;;1.90;;
63555;SDS011;49700;48.072;7.800;2022-08-21T02:00:01;4.23;;;2.33;;
63555;SDS011;49700;48.072;7.800;2022-08-21T02:02:37;3.15;;;2.20;;
63555;SDS011;49700;48.072;7.800;2022-08-21T02:05:03;3.50;;;1.87;;
63555;SDS011;49700;48.072;7.800;2022-08-21T02:07:37;2.60;;;2.03;;
63555;SDS011;49700;48.072;7.800;2022-08-21T02:10:05;2.10;;;1.90;;
63555;SDS011;49700;48.072;7.800;2022-08-21T02:12:33;2.33;;;2.13;;
63555;SDS011;49700;48.072;7.800;2022-08-21T02:14:59;4.00;;;1.73;;
63555;SDS011;49700;48.072;7.800;2022-08-21T02:17:25;2.30;;;1.73;;
63555;SDS011;49700;48.072;7.800;2022-08-21T02:19:51;3.53;;;1.93;;
63555;SDS011;49700;48.072;7.800;2022-08-21T02:22:17;2.43;;;1.90;;
63555;SDS011;49700;48.072;7.800;2022-08-21T02:24:42;2.17;;;1.70;;
63555;SDS011;49700;48.072;7.800;2022-08-21T02:27:08;3.50;;;2.57;;
63555;SDS011;49700;48.072;7.800;2022-08-21T02:29:34;3.57;;;2.60;;
63555;SDS011;49700;48.072;7.800;2022-08-21T02:31:59;2.57;;;2.37;;
63555;SDS011;49700;48.072;7.800;2022-08-21T02:34:25;3.57;;;2.80;;
63555;SDS011;49700;48.072;7.800;2022-08-21T02:36:50;1.90;;;1.50;;
63555;SDS011;49700;48.072;7.800;2022-08-21T02:39:16;2.23;;;1.80;;
63555;SDS011;49700;48.072;7.800;2022-08-21T02:41:41;2.50;;;1.60;;
63555;SDS011;49700;48.072;7.800;2022-08-21T02:44:06;2.37;;;2.00;;
63555;SDS011;49700;48.072;7.800;2022-08-21T02:46:32;3.03;;;2.30;;
63555;SDS011;49700;48.072;7.800;2022-08-21T02:48:57;2.10;;;1.90;;
63555;SDS011;49700;48.072;7.800;2022-08-21T02:51:23;3.03;;;2.00;;
63555;SDS011;49700;48.072;7.800;2022-08-21T02:53:58;3.93;;;1.83;;
63555;SDS011;49700;48.072;7.800;2022-08-21T02:56:26;3.17;;;2.90;;
63555;SDS011;49700;48.072;7.800;2022-08-21T02:58:52;2.33;;;2.13;;
63555;SDS011;49700;48.072;7.800;2022-08-21T03:01:18;2.60;;;1.95;;
63555;SDS011;49700;48.072;7.800;2022-08-21T03:03:45;2.70;;;2.50;;
63555;SDS011;49700;48.072;7.800;2022-08-21T03:06:15;2.53;;;2.33;;
63555;SDS011;49700;48.072;7.800;2022-08-21T03:08:41;3.70;;;2.30;;
63555;SDS011;49700;48.072;7.800;2022-08-21T03:11:10;3.10;;;2.45;;
63555;SDS011;49700;48.072;7.800;2022-08-21T03:13:36;3.70;;;2.33;;
63555;SDS011;49700;48.072;7.800;2022-08-21T03:16:02;2.83;;;1.90;;
63555;SDS011;49700;48.072;7.800;2022-08-21T03:18:29;4.60;;;2.55;;
63555;SDS011;49700;48.072;7.800;2022-08-21T03:20:55;3.20;;;2.13;;
63555;SDS011;49700;48.072;7.800;2022-08-21T03:23:20;2.47;;;2.27;;
63555;SDS011;49700;48.072;7.800;2022-08-21T03:25:46;2.50;;;2.23;;
63555;SDS011;49700;48.072;7.800;2022-08-21T03:28:19;2.40;;;1.80;;
63555;SDS011;49700;48.072;7.800;2022-08-21T03:30:48;3.00;;;2.50;;
63555;SDS011;49700;48.072;7.800;2022-08-21T03:33:15;1.75;;;1.48;;
63555;SDS011;49700;48.072;7.800;2022-08-21T03:35:42;4.55;;;1.90;;
63555;SDS011;49700;48.072;7.800;2022-08-21T03:38:17;2.75;;;2.45;;
63555;SDS011;49700;48.072;7.800;2022-08-21T03:40:42;2.37;;;2.17;;
63555;SDS011;49700;48.072;7.800;2022-08-21T03:43:14;2.88;;;2.10;;
63555;SDS011;49700;48.072;7.800;2022-08-21T03:45:39;2.70;;;2.17;;
63555;SDS011;49700;48.072;7.800;2022-08-21T03:48:06;3.53;;;2.23;;
63555;SDS011;49700;48.072;7.800;2022-08-21T03:50:33;3.42;;;2.08;;
63555;SDS011;49700;48.072;7.800;2022-08-21T03:53:03;2.60;;;1.98;;
63555;SDS011;49700;48.072;7.800;2022-08-21T03:55:29;4.27;;;2.50;;
63555;SDS011;49700;48.072;7.800;2022-08-21T03:57:55;3.40;;;2.17;;
63555;SDS011;49700;48.072;7.800;2022-08-21T04:00:22;4.18;;;2.05;;
63555;SDS011;49700;48.072;7.800;2022-08-21T04:02:51;4.50;;;2.28;;
63555;SDS011;49700;48.072;7.800;2022-08-21T04:05:17;9.48;;;2.00;;
63555;SDS011;49700;48.072;7.800;2022-08-21T04:08:02;3.15;;;2.13;;
63555;SDS011;49700;48.072;7.800;2022-08-21T04:10:31;2.55;;;2.30;;
63555;SDS011;49700;48.072;7.800;2022-08-21T04:12:57;2.85;;;2.05;;
63555;SDS011;49700;48.072;7.800;2022-08-21T04:15:24;3.60;;;2.53;;
63555;SDS011;49700;48.072;7.800;2022-08-21T04:17:51;6.07;;;2.30;;
63555;SDS011;49700;48.072;7.800;2022-08-21T04:20:18;3.85;;;2.17;;
63555;SDS011;49700;48.072;7.800;2022-08-21T04:22:47;4.65;;;2.47;;
63555;SDS011;49700;48.072;7.800;2022-08-21T04:25:18;3.80;;;2.40;;
63555;SDS011;49700;48.072;7.800;2022-08-21T04:28:06;6.68;;;2.88;;
63555;SDS011;49700;48.072;7.800;2022-08-21T04:30:35;4.47;;;2.50;;
63555;SDS011;49700;48.072;7.800;2022-08-21T04:33:01;5.57;;;3.10;;
63555;SDS011;49700;48.072;7.800;2022-08-21T04:35:29;3.80;;;2.78;;
63555;SDS011;49700;48.072;7.800;2022-08-21T04:37:56;3.70;;;2.70;;
63555;SDS011;49700;48.072;7.800;2022-08-21T04:40:24;5.20;;;3.05;;
63555;SDS011;49700;48.072;7.800;2022-08-21T04:42:53;3.70;;;2.30;;
63555;SDS011;49700;48.072;7.800;2022-08-21T04:45:28;3.10;;;2.80;;
63555;SDS011;49700;48.072;7.800;2022-08-21T04:48:00;5.32;;;3.13;;
63555;SDS011;49700;48.072;7.800;2022-08-21T04:50:41;3.08;;;2.80;;
63555;SDS011;49700;48.072;7.800;2022-08-21T04:53:32;4.47;;;2.80;;
63555;SDS011;49700;48.072;7.800;2022-08-21T04:56:59;3.20;;;2.50;;
63555;SDS011;49700;48.072;7.800;2022-08-21T04:59:33;4.78;;;3.30;;
63555;SDS011;49700;48.072;7.800;2022-08-21T05:02:03;4.28;;;2.75;;
63555;SDS011;49700;48.072;7.800;2022-08-21T05:04:30;3.63;;;2.67;;
63555;SDS011;49700;48.072;7.800;2022-08-21T05:06:59;5.20;;;3.03;;
63555;SDS011;49700;48.072;7.800;2022-08-21T05:09:28;3.85;;;2.70;;
63555;SDS011;49700;48.072;7.800;2022-08-21T05:11:55;3.13;;;2.75;;
63555;SDS011;49700;48.072;7.800;2022-08-21T05:14:21;2.73;;;2.50;;
63555;SDS011;49700;48.072;7.800;2022-08-21T05:16:46;3.33;;;2.50;;
63555;SDS011;49700;48.072;7.800;2022-08-21T05:19:12;3.90;;;2.60;;
63555;SDS011;49700;48.072;7.800;2022-08-21T05:21:39;3.40;;;3.07;;
63555;SDS011;49700;48.072;7.800;2022-08-21T05:24:06;4.23;;;2.60;;
63555;SDS011;49700;48.072;7.800;2022-08-21T05:26:32;4.10;;;3.40;;
63555;SDS011;49700;48.072;7.800;2022-08-21T05:28:58;4.80;;;2.70;;
63555;SDS011;49700;48.072;7.800;2022-08-21T05:31:23;3.93;;;3.37;;
63555;SDS011;49700;48.072;7.800;2022-08-21T05:33:49;2.73;;;2.07;;
63555;SDS011;49700;48.072;7.800;2022-08-21T05:36:16;2.90;;;2.20;;
63555;SDS011;49700;48.072;7.800;2022-08-21T05:38:42;3.38;;;2.30;;
63555;SDS011;49700;48.072;7.800;2022-08-21T05:41:08;3.47;;;2.97;;
63555;SDS011;49700;48.072;7.800;2022-08-21T05:43:34;5.60;;;2.33;;
63555;SDS011;49700;48.072;7.800;2022-08-21T05:46:02;2.83;;;2.63;;
63555;SDS011;49700;48.072;7.800;2022-08-21T05:48:28;3.30;;;2.88;;
63555;SDS011;49700;48.072;7.800;2022-08-21T05:50:53;4.93;;;2.40;;
63555;SDS011;49700;48.072;7.800;2022-08-21T05:53:20;5.57;;;3.10;;
63555;SDS011;49700;48.072;7.800;2022-08-21T05:55:47;5.33;;;2.73;;
63555;SDS011;49700;48.072;7.800;2022-08-21T05:58:13;6.80;;;2.90;;
63555;SDS011;49700;48.072;7.800;2022-08-21T06:00:40;3.77;;;2.73;;
63555;SDS011;49700;48.072;7.800;2022-08-21T06:03:13;13.33;;;3.30;;
63555;SDS011;49700;48.072;7.800;2022-08-21T06:05:46;3.50;;;3.20;;
63555;SDS011;49700;48.072;7.800;2022-08-21T06:08:12;5.67;;;2.57;;
63555;SDS011;49700;48.072;7.800;2022-08-21T06:10:42;4.40;;;2.90;;
63555;SDS011;49700;48.072;7.800;2022-08-21T06:13:09;3.50;;;2.53;;
63555;SDS011;49700;48.072;7.800;2022-08-21T06:15:35;4.40;;;3.30;;
63555;SDS011;49700;48.072;7.800;2022-08-21T06:18:00;5.40;;;2.60;;
63555;SDS011;49700;48.072;7.800;2022-08-21T06:20:26;3.80;;;3.50;;
63555;SDS011;49700;48.072;7.800;2022-08-21T06:22:51;4.23;;;2.60;;
63555;SDS011;49700;48.072;7.800;2022-08-21T06:25:17;3.83;;;2.83;;
63555;SDS011;49700;48.072;7.800;2022-08-21T06:27:43;3.93;;;3.00;;
63555;SDS011;49700;48.072;7.800;2022-08-21T06:30:08;3.20;;;2.80;;
63555;SDS011;49700;48.072;7.800;2022-08-21T06:32:34;3.80;;;3.03;;
63555;SDS011;49700;48.072;7.800;2022-08-21T06:35:00;5.60;;;2.20;;
63555;SDS011;49700;48.072;7.800;2022-08-21T06:37:25;3.70;;;2.53;;
63555;SDS011;49700;48.072;7.800;2022-08-21T06:39:51;3.73;;;2.90;;
63555;SDS011;49700;48.072;7.800;2022-08-21T06:42:16;5.87;;;3.20;;
63555;SDS011;49700;48.072;7.800;2022-08-21T06:44:43;5.33;;;2.70;;
63555;SDS011;49700;48.072;7.800;2022-08-21T06:47:09;3.60;;;2.70;;
63555;SDS011;49700;48.072;7.800;2022-08-21T06:49:35;6.00;;;3.00;;
63555;SDS011;49700;48.072;7.800;2022-08-21T06:52:01;5.23;;;2.57;;
63555;SDS011;49700;48.072;7.800;2022-08-21T06:54:27;4.67;;;2.80;;
63555;SDS011;49700;48.072;7.800;2022-08-21T06:56:52;6.20;;;2.70;;
63555;SDS011;49700;48.072;7.800;2022-08-21T06:59:18;5.77;;;3.03;;
63555;SDS011;49700;48.072;7.800;2022-08-21T07:01:43;6.50;;;3.40;;
63555;SDS011;49700;48.072;7.800;2022-08-21T07:04:09;4.27;;;2.97;;
63555;SDS011;49700;48.072;7.800;2022-08-21T07:06:34;4.20;;;3.00;;
63555;SDS011;49700;48.072;7.800;2022-08-21T07:09:00;3.20;;;2.70;;
63555;SDS011;49700;48.072;7.800;2022-08-21T07:11:26;5.03;;;2.83;;
63555;SDS011;49700;48.072;7.800;2022-08-21T07:13:52;8.20;;;2.90;;
63555;SDS011;49700;48.072;7.800;2022-08-21T07:16:19;3.07;;;2.73;;
63555;SDS011;49700;48.072;7.800;2022-08-21T07:18:51;3.60;;;2.60;;
63555;SDS011;49700;48.072;7.800;2022-08-21T07:21:41;3.37;;;3.17;;
63555;SDS011;49700;48.072;7.800;2022-08-21T07:24:18;5.43;;;2.23;;
63555;SDS011;49700;48.072;7.800;2022-08-21T07:26:43;4.73;;;2.80;;
63555;SDS011;49700;48.072;7.800;2022-08-21T07:29:09;4.37;;;2.83;;
63555;SDS011;49700;48.072;7.800;2022-08-21T07:31:34;3.47;;;2.70;;
63555;SDS011;49700;48.072;7.800;2022-08-21T07:33:59;4.43;;;3.20;;
63555;SDS011;49700;48.072;7.800;2022-08-21T07:36:25;2.90;;;2.50;;
63555;SDS011;49700;48.072;7.800;2022-08-21T07:38:50;2.27;;;2.07;;
63555;SDS011;49700;48.072;7.800;2022-08-21T07:41:18;2.30;;;1.93;;
63555;SDS011;49700;48.072;7.800;2022-08-21T07:43:45;4.40;;;2.70;;
63555;SDS011;49700;48.072;7.800;2022-08-21T07:46:11;5.37;;;2.97;;
63555;SDS011;49700;48.072;7.800;2022-08-21T07:48:37;7.13;;;3.57;;
63555;SDS011;49700;48.072;7.800;2022-08-21T07:51:04;3.73;;;2.67;;
63555;SDS011;49700;48.072;7.800;2022-08-21T07:53:33;2.70;;;2.37;;
63555;SDS011;49700;48.072;7.800;2022-08-21T07:55:59;3.80;;;3.20;;
63555;SDS011;49700;48.072;7.800;2022-08-21T07:58:25;5.77;;;2.47;;
63555;SDS011;49700;48.072;7.800;2022-08-21T08:00:50;6.33;;;2.60;;
63555;SDS011;49700;48.072;7.800;2022-08-21T08:03:16;4.03;;;2.77;;
63555;SDS011;49700;48.072;7.800;2022-08-21T08:05:41;4.20;;;2.67;;
63555;SDS011;49700;48.072;7.800;2022-08-21T08:08:07;3.03;;;2.53;;
63555;SDS011;49700;48.072;7.800;2022-08-21T08:10:32;3.20;;;2.47;;
63555;SDS011;49700;48.072;7.800;2022-08-21T08:12:58;3.67;;;2.50;;
63555;SDS011;49700;48.072;7.800;2022-08-21T08:15:24;5.63;;;2.40;;
63555;SDS011;49700;48.072;7.800;2022-08-21T08:17:51;5.50;;;2.50;;
63555;SDS011;49700;48.072;7.800;2022-08-21T08:20:17;3.50;;;2.30;;
63555;SDS011;49700;48.072;7.800;2022-08-21T08:22:44;6.53;;;2.67;;
63555;SDS011;49700;48.072;7.800;2022-08-21T08:25:11;2.87;;;2.10;;
63555;SDS011;49700;48.072;7.800;2022-08-21T08:27:38;3.77;;;2.47;;
63555;SDS011;49700;48.072;7.800;2022-08-21T08:30:05;3.73;;;3.10;;
63555;SDS011;49700;48.072;7.800;2022-08-21T08:32:32;3.10;;;2.40;;
63555;SDS011;49700;48.072;7.800;2022-08-21T08:34:57;5.23;;;2.60;;
63555;SDS011;49700;48.072;7.800;2022-08-21T08:37:23;3.13;;;2.70;;
63555;SDS011;49700;48.072;7.800;2022-08-21T08:39:48;2.83;;;1.97;;
63555;SDS011;49700;48.072;7.800;2022-08-21T08:42:19;8.67;;;2.87;;
63555;SDS011;49700;48.072;7.800;2022-08-21T08:44:45;2.97;;;2.50;;
63555;SDS011;49700;48.072;7.800;2022-08-21T08:47:13;3.63;;;2.20;;
63555;SDS011;49700;48.072;7.800;2022-08-21T08:49:46;6.03;;;2.90;;
63555;SDS011;49700;48.072;7.800;2022-08-21T08:54:55;2.57;;;2.37;;
63555;SDS011;49700;48.072;7.800;2022-08-21T08:57:28;7.87;;;2.73;;
63555;SDS011;49700;48.072;7.800;2022-08-21T08:59:56;4.43;;;2.00;;
63555;SDS011;49700;48.072;7.800;2022-08-21T09:02:24;3.77;;;2.60;;
63555;SDS011;49700;48.072;7.800;2022-08-21T09:04:52;2.20;;;2.10;;
63555;SDS011;49700;48.072;7.800;2022-08-21T09:10:21;5.60;;;3.20;;
63555;SDS011;49700;48.072;7.800;2022-08-21T09:12:56;3.77;;;2.80;;
63555;SDS011;49700;48.072;7.800;2022-08-21T09:15:36;3.70;;;2.37;;
63555;SDS011;49700;48.072;7.800;2022-08-21T09:26:32;4.73;;;2.80;;
63555;SDS011;49700;48.072;7.800;2022-08-21T09:29:09;4.57;;;3.03;;
63555;SDS011;49700;48.072;7.800;2022-08-21T09:31:36;3.93;;;2.83;;
63555;SDS011;49700;48.072;7.800;2022-08-21T09:34:04;4.37;;;3.10;;
63555;SDS011;49700;48.072;7.800;2022-08-21T09:39:05;4.67;;;2.60;;
63555;SDS011;49700;48.072;7.800;2022-08-21T09:41:33;4.83;;;3.17;;
63555;SDS011;49700;48.072;7.800;2022-08-21T09:44:01;5.03;;;2.90;;
63555;SDS011;49700;48.072;7.800;2022-08-21T09:46:27;4.00;;;2.43;;
63555;SDS011;49700;48.072;7.800;2022-08-21T09:48:54;3.50;;;3.03;;
63555;SDS011;49700;48.072;7.800;2022-08-21T09:56:33;3.50;;;3.00;;
63555;SDS011;49700;48.072;7.800;2022-08-21T09:59:36;7.93;;;2.67;;
63555;SDS011;49700;48.072;7.800;2022-08-21T10:02:14;4.03;;;2.93;;
63555;SDS011;49700;48.072;7.800;2022-08-21T10:04:51;7.93;;;2.90;;
63555;SDS011;49700;48.072;7.800;2022-08-21T10:07:19;3.53;;;2.53;;
63555;SDS011;49700;48.072;7.800;2022-08-21T10:09:57;4.40;;;3.13;;
63555;SDS011;49700;48.072;7.800;2022-08-21T10:12:36;4.20;;;2.80;;
63555;SDS011;49700;48.072;7.800;2022-08-21T10:17:52;6.23;;;3.60;;
63555;SDS011;49700;48.072;7.800;2022-08-21T10:20:35;3.23;;;2.50;;
63555;SDS011;49700;48.072;7.800;2022-08-21T10:26:24;6.10;;;2.80;;
63555;SDS011;49700;48.072;7.800;2022-08-21T10:29:12;4.43;;;2.73;;
63555;SDS011;49700;48.072;7.800;2022-08-21T10:31:57;2.90;;;2.63;;
63555;SDS011;49700;48.072;7.800;2022-08-21T10:40:21;2.50;;;2.30;;
63555;SDS011;49700;48.072;7.800;2022-08-21T10:45:42;2.80;;;2.17;;
63555;SDS011;49700;48.072;7.800;2022-08-21T10:48:25;3.57;;;1.90;;
63555;SDS011;49700;48.072;7.800;2022-08-21T10:51:42;5.63;;;2.57;;
63555;SDS011;49700;48.072;7.800;2022-08-21T10:56:36;1.53;;;1.43;;
63555;SDS011;49700;48.072;7.800;2022-08-21T11:04:25;5.47;;;1.93;;
63555;SDS011;49700;48.072;7.800;2022-08-21T11:06:59;3.00;;;1.50;;
63555;SDS011;49700;48.072;7.800;2022-08-21T11:09:28;3.47;;;1.50;;
63555;SDS011;49700;48.072;7.800;2022-08-21T11:14:53;2.30;;;1.50;;
63555;SDS011;49700;48.072;7.800;2022-08-21T11:17:27;3.23;;;2.20;;
63555;SDS011;49700;48.072;7.800;2022-08-21T11:20:21;2.40;;;1.77;;
63555;SDS011;49700;48.072;7.800;2022-08-21T11:22:58;2.10;;;1.50;;
63555;SDS011;49700;48.072;7.800;2022-08-21T11:30:35;2.70;;;1.90;;
63555;SDS011;49700;48.072;7.800;2022-08-21T11:41:03;3.73;;;1.83;;
63555;SDS011;49700;48.072;7.800;2022-08-21T11:51:53;1.90;;;1.60;;
63555;SDS011;49700;48.072;7.800;2022-08-21T11:54:39;3.30;;;2.30;;
63555;SDS011;49700;48.072;7.800;2022-08-21T11:57:13;2.70;;;1.53;;
63555;SDS011;49700;48.072;7.800;2022-08-21T11:59:56;3.33;;;2.17;;
63555;SDS011;49700;48.072;7.800;2022-08-21T12:02:28;4.50;;;2.03;;
63555;SDS011;49700;48.072;7.800;2022-08-21T12:04:59;2.67;;;1.77;;
63555;SDS011;49700;48.072;7.800;2022-08-21T12:07:30;2.93;;;1.90;;
63555;SDS011;49700;48.072;7.800;2022-08-21T12:09:59;2.53;;;2.33;;
63555;SDS011;49700;48.072;7.800;2022-08-21T12:12:27;3.70;;;1.87;;
63555;SDS011;49700;48.072;7.800;2022-08-21T12:17:39;2.20;;;1.70;;
63555;SDS011;49700;48.072;7.800;2022-08-21T12:25:37;3.77;;;1.73;;
63555;SDS011;49700;48.072;7.800;2022-08-21T12:28:09;3.90;;;2.20;;
63555;SDS011;49700;48.072;7.800;2022-08-21T12:30:39;2.20;;;1.70;;
63555;SDS011;49700;48.072;7.800;2022-08-21T12:33:25;5.17;;;1.80;;
63555;SDS011;49700;48.072;7.800;2022-08-21T12:36:17;3.00;;;2.20;;
63555;SDS011;49700;48.072;7.800;2022-08-21T12:38:50;2.20;;;1.70;;
63555;SDS011;49700;48.072;7.800;2022-08-21T12:41:24;3.20;;;1.70;;
63555;SDS011;49700;48.072;7.800;2022-08-21T12:43:59;2.10;;;1.87;;
63555;SDS011;49700;48.072;7.800;2022-08-21T12:46:48;3.40;;;2.20;;
63555;SDS011;49700;48.072;7.800;2022-08-21T12:49:19;1.60;;;1.50;;
63555;SDS011;49700;48.072;7.800;2022-08-21T12:54:55;4.60;;;2.17;;
63555;SDS011;49700;48.072;7.800;2022-08-21T12:57:36;2.80;;;1.70;;
63555;SDS011;49700;48.072;7.800;2022-08-21T13:00:20;2.20;;;1.57;;
63555;SDS011;49700;48.072;7.800;2022-08-21T13:03:31;3.60;;;1.70;;
63555;SDS011;49700;48.072;7.800;2022-08-21T13:06:02;3.50;;;1.83;;
63555;SDS011;49700;48.072;7.800;2022-08-21T13:08:29;3.40;;;2.20;;
63555;SDS011;49700;48.072;7.800;2022-08-21T13:11:12;3.00;;;1.63;;
63555;SDS011;49700;48.072;7.800;2022-08-21T13:13:56;8.37;;;2.07;;
63555;SDS011;49700;48.072;7.800;2022-08-21T13:17:45;5.93;;;2.20;;
63555;SDS011;49700;48.072;7.800;2022-08-21T13:20:20;2.70;;;1.40;;
63555;SDS011;49700;48.072;7.800;2022-08-21T13:22:48;5.10;;;2.10;;
63555;SDS011;49700;48.072;7.800;2022-08-21T13:25:16;2.70;;;2.20;;
63555;SDS011;49700;48.072;7.800;2022-08-21T13:27:44;1.80;;;1.50;;
63555;SDS011;49700;48.072;7.800;2022-08-21T13:30:21;2.73;;;2.17;;
63555;SDS011;49700;48.072;7.800;2022-08-21T13:32:52;3.63;;;1.80;;
63555;SDS011;49700;48.072;7.800;2022-08-21T13:35:24;2.17;;;1.57;;
63555;SDS011;49700;48.072;7.800;2022-08-21T13:38:01;2.60;;;2.10;;
63555;SDS011;49700;48.072;7.800;2022-08-21T13:40:29;2.03;;;1.60;;
63555;SDS011;49700;48.072;7.800;2022-08-21T13:42:57;2.43;;;1.73;;
63555;SDS011;49700;48.072;7.800;2022-08-21T13:45:27;5.10;;;1.90;;
63555;SDS011;49700;48.072;7.800;2022-08-21T13:47:56;4.50;;;1.83;;
63555;SDS011;49700;48.072;7.800;2022-08-21T13:50:24;3.63;;;2.00;;
63555;SDS011;49700;48.072;7.800;2022-08-21T13:53:20;2.23;;;1.77;;
63555;SDS011;49700;48.072;7.800;2022-08-21T13:55:50;2.20;;;2.00;;
63555;SDS011;49700;48.072;7.800;2022-08-21T14:00:56;4.80;;;1.97;;
63555;SDS011;49700;48.072;7.800;2022-08-21T14:06:02;9.03;;;2.20;;
63555;SDS011;49700;48.072;7.800;2022-08-21T14:08:49;1.70;;;1.60;;
63555;SDS011;49700;48.072;7.800;2022-08-21T14:11:22;1.87;;;1.40;;
63555;SDS011;49700;48.072;7.800;2022-08-21T14:14:14;2.13;;;1.87;;
63555;SDS011;49700;48.072;7.800;2022-08-21T14:16:45;2.93;;;1.43;;
63555;SDS011;49700;48.072;7.800;2022-08-21T14:19:20;3.90;;;1.77;;
63555;SDS011;49700;48.072;7.800;2022-08-21T14:21:49;2.27;;;1.57;;
63555;SDS011;49700;48.072;7.800;2022-08-21T14:24:28;3.77;;;2.07;;
63555;SDS011;49700;48.072;7.800;2022-08-21T14:27:02;3.80;;;2.33;;
63555;SDS011;49700;48.072;7.800;2022-08-21T14:29:48;2.37;;;1.70;;
63555;SDS011;49700;48.072;7.800;2022-08-21T14:32:19;1.77;;;1.67;;
63555;SDS011;49700;48.072;7.800;2022-08-21T14:34:51;2.30;;;1.50;;
63555;SDS011;49700;48.072;7.800;2022-08-21T14:37:18;2.10;;;1.53;;
63555;SDS011;49700;48.072;7.800;2022-08-21T14:39:43;3.23;;;1.80;;
63555;SDS011;49700;48.072;7.800;2022-08-21T14:42:09;2.07;;;1.70;;
63555;SDS011;49700;48.072;7.800;2022-08-21T14:44:35;1.93;;;1.40;;
63555;SDS011;49700;48.072;7.800;2022-08-21T14:47:00;2.30;;;1.53;;
63555;SDS011;49700;48.072;7.800;2022-08-21T14:49:26;2.53;;;2.03;;
63555;SDS011;49700;48.072;7.800;2022-08-21T14:51:54;3.40;;;1.50;;
63555;SDS011;49700;48.072;7.800;2022-08-21T14:54:23;2.10;;;1.70;;
63555;SDS011;49700;48.072;7.800;2022-08-21T14:56:52;1.90;;;1.80;;
63555;SDS011;49700;48.072;7.800;2022-08-21T14:59:19;2.50;;;1.93;;
63555;SDS011;49700;48.072;7.800;2022-08-21T15:01:46;4.80;;;1.67;;
63555;SDS011;49700;48.072;7.800;2022-08-21T15:04:12;2.20;;;1.73;;
63555;SDS011;49700;48.072;7.800;2022-08-21T15:06:37;1.87;;;1.50;;
63555;SDS011;49700;48.072;7.800;2022-08-21T15:09:03;2.57;;;1.43;;
63555;SDS011;49700;48.072;7.800;2022-08-21T15:11:30;4.20;;;1.90;;
63555;SDS011;49700;48.072;7.800;2022-08-21T15:13:59;1.73;;;1.50;;
63555;SDS011;49700;48.072;7.800;2022-08-21T15:16:27;3.43;;;1.57;;
63555;SDS011;49700;48.072;7.800;2022-08-21T15:18:53;1.43;;;1.30;;
63555;SDS011;49700;48.072;7.800;2022-08-21T15:21:19;2.13;;;1.40;;
63555;SDS011;49700;48.072;7.800;2022-08-21T15:23:45;2.90;;;1.80;;
63555;SDS011;49700;48.072;7.800;2022-08-21T15:26:10;3.50;;;1.70;;
63555;SDS011;49700;48.072;7.800;2022-08-21T15:28:36;2.13;;;1.73;;
63555;SDS011;49700;48.072;7.800;2022-08-21T15:31:03;1.93;;;1.47;;
63555;SDS011;49700;48.072;7.800;2022-08-21T15:33:28;3.17;;;1.73;;
63555;SDS011;49700;48.072;7.800;2022-08-21T15:35:54;1.87;;;1.63;;
63555;SDS011;49700;48.072;7.800;2022-08-21T15:38:19;3.67;;;1.90;;
63555;SDS011;49700;48.072;7.800;2022-08-21T15:40:45;3.03;;;1.90;;
63555;SDS011;49700;48.072;7.800;2022-08-21T15:46:07;2.87;;;1.63;;
63555;SDS011;49700;48.072;7.800;2022-08-21T15:48:36;2.30;;;1.50;;
63555;SDS011;49700;48.072;7.800;2022-08-21T15:51:02;3.37;;;1.83;;
63555;SDS011;49700;48.072;7.800;2022-08-21T15:53:27;3.17;;;1.60;;
63555;SDS011;49700;48.072;7.800;2022-08-21T15:55:53;1.90;;;1.63;;
63555;SDS011;49700;48.072;7.800;2022-08-21T15:58:18;2.00;;;1.33;;
63555;SDS011;49700;48.072;7.800;2022-08-21T16:00:45;2.63;;;1.63;;
63555;SDS011;49700;48.072;7.800;2022-08-21T16:03:12;4.80;;;1.63;;
63555;SDS011;49700;48.072;7.800;2022-08-21T16:05:48;2.60;;;2.00;;
63555;SDS011;49700;48.072;7.800;2022-08-21T16:08:17;2.43;;;2.07;;
63555;SDS011;49700;48.072;7.800;2022-08-21T16:10:43;3.23;;;1.80;;
63555;SDS011;49700;48.072;7.800;2022-08-21T16:13:15;2.33;;;1.40;;
63555;SDS011;49700;48.072;7.800;2022-08-21T16:15:45;2.00;;;1.90;;
63555;SDS011;49700;48.072;7.800;2022-08-21T16:18:18;1.90;;;1.47;;
63555;SDS011;49700;48.072;7.800;2022-08-21T16:20:48;2.90;;;1.53;;
63555;SDS011;49700;48.072;7.800;2022-08-21T16:23:14;2.70;;;1.53;;
63555;SDS011;49700;48.072;7.800;2022-08-21T16:25:40;2.93;;;1.43;;
63555;SDS011;49700;48.072;7.800;2022-08-21T16:28:07;2.43;;;2.03;;
63555;SDS011;49700;48.072;7.800;2022-08-21T16:30:35;2.50;;;1.77;;
63555;SDS011;49700;48.072;7.800;2022-08-21T16:33:01;1.90;;;1.60;;
63555;SDS011;49700;48.072;7.800;2022-08-21T16:35:27;3.40;;;1.60;;